Time,TemperatureF,DewpointF,PressureIn,WindDirection,WindDirectionDegrees,WindSpeedMPH,WindSpeedGustMPH,Humidity,HourlyPrecipIn,Conditions,Clouds,dailyrainin,SoftwareType,DateUTC
2013-11-08 00:23:00,41.0,28.0,-100.00,NNE,15,0.0,0.0,60,0.00,,,-99.99,,2013-11-08 05:23:00,
2013-11-08 00:54:00,41.0,28.0,-100.00,North,0,0.0,0.0,60,0.00,,,-99.99,,2013-11-08 05:54:00,
2013-11-08 01:23:00,41.0,29.0,-100.00,NE,45,0.0,0.0,63,0.00,,,-99.99,,2013-11-08 06:23:00,
2013-11-08 01:52:00,39.0,32.0,-100.00,NE,40,0.0,0.0,75,0.00,,,-99.99,,2013-11-08 06:52:00,
2013-11-08 02:22:00,39.0,33.0,-100.00,NE,50,0.0,0.0,79,0.00,,,-99.99,,2013-11-08 07:22:00,
2013-11-08 02:52:00,39.0,33.0,-100.00,NE,50,0.0,0.0,78,0.00,,,-99.99,,2013-11-08 07:52:00,
2013-11-08 03:02:00,39.0,33.0,-100.00,NE,50,0.0,0.0,78,0.00,,,-99.99,,2013-11-08 08:02:00,
2013-11-08 03:22:00,39.0,33.0,-100.00,ENE,75,0.0,0.0,76,0.00,,,-99.99,,2013-11-08 08:22:00,
2013-11-08 03:52:00,38.0,32.0,-100.00,ESE,110,0.0,0.0,78,0.00,,,-99.99,,2013-11-08 08:52:00,
2013-11-08 04:22:00,38.0,32.0,-100.00,East,80,0.0,0.0,80,0.00,,,-99.99,,2013-11-08 09:22:00,
2013-11-08 04:53:00,37.0,31.0,-100.00,NE,40,0.0,0.0,80,0.00,,,-99.99,,2013-11-08 09:53:00,
2013-11-08 05:23:00,37.0,32.0,-100.00,East,80,0.0,0.0,83,0.00,,,-99.99,,2013-11-08 10:23:00,
2013-11-08 05:53:00,36.0,32.0,-100.00,ENE,70,0.0,0.0,85,0.00,,,-99.99,,2013-11-08 10:53:00,
2013-11-08 06:22:00,36.0,32.0,-100.00,NE,45,0.0,0.0,85,0.00,,,-99.99,,2013-11-08 11:22:00,
2013-11-08 06:52:00,36.0,31.0,-100.00,NE,45,0.0,0.0,84,0.00,,,-99.99,,2013-11-08 11:52:00,
2013-11-08 07:21:00,36.0,31.0,-100.00,East,80,0.0,0.0,84,0.00,,,-99.99,,2013-11-08 12:21:00,
2013-11-08 07:52:00,36.0,31.0,-100.00,NNE,25,0.0,0.0,85,0.00,,,-99.99,,2013-11-08 12:52:00,
2013-11-08 08:21:00,35.0,31.0,-100.00,NE,35,0.0,0.0,83,0.00,,,-99.99,,2013-11-08 13:21:00,
2013-11-08 08:52:00,36.0,30.0,-100.00,NE,40,0.0,0.0,80,0.00,,,-99.99,,2013-11-08 13:52:00,
2013-11-08 09:22:00,37.0,30.0,-100.00,East,80,0.0,0.0,77,0.00,,,-99.99,,2013-11-08 14:22:00,
2013-11-08 09:52:00,37.0,30.0,-100.00,ESE,120,0.0,0.0,75,0.00,,,-99.99,,2013-11-08 14:52:00,
2013-11-08 10:22:00,38.0,30.0,-100.00,ESE,120,0.0,0.0,73,0.00,,,-99.99,,2013-11-08 15:22:00,
2013-11-08 10:53:00,38.0,30.0,-100.00,ESE,105,0.0,0.0,71,0.00,,,-99.99,,2013-11-08 15:53:00,
2013-11-08 11:23:00,40.0,31.0,-100.00,NNE,20,0.0,0.0,70,0.00,,,-99.99,,2013-11-08 16:23:00,
2013-11-08 11:53:00,42.0,31.0,-100.00,SE,125,0.0,0.0,65,0.00,,,-99.99,,2013-11-08 16:53:00,
2013-11-08 12:22:00,40.0,29.0,-100.00,East,90,0.0,0.0,65,0.00,,,-99.99,,2013-11-08 17:22:00,
2013-11-08 12:52:00,42.0,29.0,-100.00,NNE,30,0.0,0.0,60,0.00,,,-99.99,,2013-11-08 17:52:00,
2013-11-08 13:22:00,42.0,28.0,-100.00,East,100,0.0,0.0,57,0.00,,,-99.99,,2013-11-08 18:22:00,
2013-11-08 13:52:00,42.0,27.0,-100.00,NNE,20,0.0,0.0,54,0.00,,,-99.99,,2013-11-08 18:52:00,
2013-11-08 14:22:00,43.0,27.0,-100.00,ESE,105,0.0,0.0,53,0.00,,,-99.99,,2013-11-08 19:22:00,
2013-11-08 14:52:00,44.0,28.0,-100.00,ENE,70,0.0,0.0,55,0.00,,,-99.99,,2013-11-08 19:52:00,
2013-11-08 15:22:00,46.0,28.0,-100.00,NNE,30,0.0,0.0,50,0.00,,,-99.99,,2013-11-08 20:22:00,
2013-11-08 15:52:00,46.0,27.0,-100.00,NE,50,0.0,0.0,46,0.00,,,-99.99,,2013-11-08 20:52:00,
2013-11-08 16:22:00,46.0,25.0,-100.00,NE,50,0.0,0.0,44,0.00,,,-99.99,,2013-11-08 21:22:00,
2013-11-08 16:54:00,45.0,27.0,-100.00,NE,55,0.0,0.0,48,0.00,,,-99.99,,2013-11-08 21:54:00,
2013-11-08 17:24:00,44.0,27.0,-100.00,SE,130,0.0,0.0,51,0.00,,,-99.99,,2013-11-08 22:24:00,
2013-11-08 17:53:00,44.0,29.0,-100.00,NNE,20,0.0,0.0,55,0.00,,,-99.99,,2013-11-08 22:53:00,
2013-11-08 18:22:00,44.0,29.0,-100.00,North,10,0.0,0.0,56,0.00,,,-99.99,,2013-11-08 23:22:00,
2013-11-08 18:53:00,41.0,29.0,-100.00,NNW,340,0.0,0.0,63,0.00,,,-99.99,,2013-11-08 23:53:00,
2013-11-08 19:22:00,40.0,29.0,-100.00,North,10,0.0,0.0,65,0.00,,,-99.99,,2013-11-09 00:22:00,
2013-11-08 19:52:00,39.0,29.0,-100.00,NNW,340,0.0,0.0,67,0.00,,,-99.99,,2013-11-09 00:52:00,
2013-11-08 20:22:00,38.0,29.0,-100.00,North,0,0.0,0.0,69,0.00,,,-99.99,,2013-11-09 01:22:00,
2013-11-08 20:52:00,38.0,28.0,-100.00,NNE,30,0.0,0.0,69,0.00,,,-99.99,,2013-11-09 01:52:00,
2013-11-08 21:22:00,37.0,28.0,-100.00,North,0,0.0,0.0,70,0.00,,,-99.99,,2013-11-09 02:22:00,
2013-11-08 21:52:00,37.0,28.0,-100.00,North,355,0.0,0.0,72,0.00,,,-99.99,,2013-11-09 02:52:00,
2013-11-08 22:22:00,36.0,28.0,-100.00,North,10,0.0,0.0,74,0.00,,,-99.99,,2013-11-09 03:22:00,
2013-11-08 22:54:00,37.0,29.0,-100.00,NNE,25,0.0,0.0,73,0.00,,,-99.99,,2013-11-09 03:54:00,
2013-11-08 23:23:00,37.0,29.0,-100.00,NNW,345,0.0,0.0,72,0.00,,,-99.99,,2013-11-09 04:23:00,
2013-11-08 23:53:00,37.0,29.0,-100.00,West,275,0.0,0.0,71,0.00,,,-99.99,,2013-11-09 04:53:00,